This is the latest recevied weather packets stored in our database for station/object K5OBH. If no packets are shown the sender has not sent any weather packets the latest 1 day(s).
| Time | Temp. | Humidity | Pressure | Rain* | Wind** | Luminosity | Snow |
|---|---|---|---|---|---|---|---|
| 1778037562 | 10° C | 83% | 1012 hPa | 0 mm | 4.02 m/s, 37° | 0 W/m² | - |
| 1778037259 | 10° C | 84% | 1011.9 hPa | 0 mm | 1.79 m/s, 348° | 0 W/m² | - |
| 1778036957 | 10° C | 84% | 1011.7 hPa | 0 mm | 2.24 m/s, 344° | 0 W/m² | - |
| 1778036654 | 10° C | 85% | 1011.5 hPa | 0 mm | 2.68 m/s, 71° | 0 W/m² | - |
| 1778036351 | 9.44° C | 85% | 1011.4 hPa | 0 mm | 4.02 m/s, 63° | 0 W/m² | - |
| 1778036048 | 10° C | 85% | 1011.4 hPa | 0 mm | 2.24 m/s, 1° | 0 W/m² | - |
| 1778035745 | 9.44° C | 85% | 1011.4 hPa | 0 mm | 4.02 m/s, 58° | 0 W/m² | - |
| 1778035442 | 10° C | 85% | 1011.4 hPa | 0 mm | 4.92 m/s, 20° | 0 W/m² | - |
| 1778035137 | 9.44° C | 85% | 1010.8 hPa | 0 mm | 2.24 m/s, 20° | 0 W/m² | - |
| 1778034835 | 9.44° C | 85% | 1011.2 hPa | 0 mm | 4.47 m/s, 73° | 0 W/m² | - |
| 1778034531 | 9.44° C | 85% | 1011.4 hPa | 0 mm | 2.24 m/s, 354° | 0 W/m² | - |
| 1778034229 | 9.44° C | 86% | 1011 hPa | 0 mm | 4.47 m/s, 36° | 0 W/m² | - |
| 1778033922 | 9.44° C | 86% | 1011.2 hPa | 0 mm | 4.02 m/s, 14° | 0 W/m² | - |
| 1778033618 | 10° C | 85% | 1011.2 hPa | 0 mm | 2.68 m/s, 0° | 0 W/m² | - |
| 1778033314 | 10° C | 84% | 1011.4 hPa | 0 mm | 4.02 m/s, 352° | 0 W/m² | - |
| 1778033013 | 10° C | 84% | 1011.1 hPa | 0 mm | 2.24 m/s, 43° | 0 W/m² | - |
| 1778032710 | 10° C | 84% | 1011.1 hPa | 0 mm | 2.68 m/s, 344° | 0 W/m² | - |
| 1778032408 | 10° C | 83% | 1011.1 hPa | 0 mm | 4.02 m/s, 359° | 0 W/m² | - |
| 1778032104 | 10° C | 83% | 1011 hPa | 0 mm | 3.58 m/s, 333° | 0 W/m² | - |
| 1778031801 | 10° C | 84% | 1010.7 hPa | 0 mm | 2.24 m/s, 358° | 0 W/m² | - |
| 1778031498 | 10° C | 83% | 1010.6 hPa | 0 mm | 1.79 m/s, 287° | 0 W/m² | - |
| 1778031195 | 10° C | 84% | 1010.8 hPa | 0 mm | 2.24 m/s, 327° | 0 W/m² | - |
| 1778030892 | 10° C | 84% | 1010.5 hPa | 0 mm | 3.58 m/s, 23° | 0 W/m² | - |
| 1778030589 | 10° C | 83% | 1010.7 hPa | 0 mm | 4.02 m/s, 0° | 1 W/m² | - |
| 1778030285 | 10° C | 83% | 1010.7 hPa | 0 mm | 2.24 m/s, 30° | 1 W/m² | - |
* Rain latest hour (hover to see other rain measurements)
** Current wind speed in m/s (hover to see current wind gust speed)